sensor_id;sensor_type;location;lat;lon;timestamp;P1;durP1;ratioP1;P2;durP2;ratioP2
39016;SDS011;24784;45.582;5.276;2022-11-15T06:23:39;15.90;;;10.75;;
39016;SDS011;24784;45.582;5.276;2022-11-15T06:26:05;17.05;;;11.30;;
39016;SDS011;24784;45.582;5.276;2022-11-15T06:28:34;17.35;;;10.90;;
39016;SDS011;24784;45.582;5.276;2022-11-15T06:33:35;19.08;;;12.98;;
39016;SDS011;24784;45.582;5.276;2022-11-15T06:36:02;17.52;;;11.30;;
39016;SDS011;24784;45.582;5.276;2022-11-15T06:38:28;19.10;;;10.63;;
39016;SDS011;24784;45.582;5.276;2022-11-15T06:40:54;18.75;;;11.80;;
39016;SDS011;24784;45.582;5.276;2022-11-15T06:43:20;16.83;;;10.98;;
39016;SDS011;24784;45.582;5.276;2022-11-15T06:45:46;20.15;;;11.32;;
39016;SDS011;24784;45.582;5.276;2022-11-15T06:48:12;15.15;;;10.45;;
39016;SDS011;24784;45.582;5.276;2022-11-15T06:50:39;15.82;;;11.02;;
39016;SDS011;24784;45.582;5.276;2022-11-15T06:53:04;17.08;;;10.70;;
39016;SDS011;24784;45.582;5.276;2022-11-15T06:55:30;22.40;;;12.88;;
39016;SDS011;24784;45.582;5.276;2022-11-15T06:57:56;14.63;;;10.32;;
39016;SDS011;24784;45.582;5.276;2022-11-15T07:00:22;12.65;;;9.43;;
39016;SDS011;24784;45.582;5.276;2022-11-15T07:02:48;10.80;;;8.95;;
39016;SDS011;24784;45.582;5.276;2022-11-15T07:05:17;14.70;;;9.52;;
39016;SDS011;24784;45.582;5.276;2022-11-15T07:07:50;12.25;;;7.57;;
39016;SDS011;24784;45.582;5.276;2022-11-15T07:10:20;10.27;;;7.78;;
39016;SDS011;24784;45.582;5.276;2022-11-15T07:12:49;12.95;;;8.98;;
39016;SDS011;24784;45.582;5.276;2022-11-15T07:15:18;17.30;;;9.65;;
39016;SDS011;24784;45.582;5.276;2022-11-15T07:17:45;16.45;;;10.32;;
39016;SDS011;24784;45.582;5.276;2022-11-15T07:20:12;14.88;;;10.30;;
39016;SDS011;24784;45.582;5.276;2022-11-15T07:22:39;14.55;;;9.88;;
39016;SDS011;24784;45.582;5.276;2022-11-15T07:25:05;14.63;;;9.73;;
39016;SDS011;24784;45.582;5.276;2022-11-15T07:27:34;15.52;;;9.30;;
39016;SDS011;24784;45.582;5.276;2022-11-15T07:30:00;20.55;;;8.98;;
39016;SDS011;24784;45.582;5.276;2022-11-15T07:32:26;23.60;;;10.23;;
39016;SDS011;24784;45.582;5.276;2022-11-15T07:34:52;15.43;;;8.38;;
39016;SDS011;24784;45.582;5.276;2022-11-15T07:37:18;13.32;;;6.50;;
39016;SDS011;24784;45.582;5.276;2022-11-15T07:39:49;9.63;;;6.22;;
39016;SDS011;24784;45.582;5.276;2022-11-15T07:42:17;11.82;;;6.78;;
39016;SDS011;24784;45.582;5.276;2022-11-15T07:45:02;6.97;;;5.32;;
39016;SDS011;24784;45.582;5.276;2022-11-15T07:47:28;9.32;;;6.25;;
39016;SDS011;24784;45.582;5.276;2022-11-15T07:49:57;10.68;;;6.95;;
39016;SDS011;24784;45.582;5.276;2022-11-15T07:52:23;12.40;;;7.65;;
39016;SDS011;24784;45.582;5.276;2022-11-15T07:54:56;15.70;;;7.57;;
39016;SDS011;24784;45.582;5.276;2022-11-15T07:57:35;13.18;;;7.18;;
39016;SDS011;24784;45.582;5.276;2022-11-15T08:00:04;15.68;;;7.15;;
39016;SDS011;24784;45.582;5.276;2022-11-15T08:02:31;11.13;;;8.13;;
39016;SDS011;24784;45.582;5.276;2022-11-15T08:04:59;12.52;;;8.32;;
39016;SDS011;24784;45.582;5.276;2022-11-15T08:07:27;11.10;;;7.47;;
39016;SDS011;24784;45.582;5.276;2022-11-15T08:10:06;11.05;;;6.90;;
39016;SDS011;24784;45.582;5.276;2022-11-15T08:12:33;9.38;;;6.00;;
39016;SDS011;24784;45.582;5.276;2022-11-15T08:15:02;9.27;;;6.03;;
39016;SDS011;24784;45.582;5.276;2022-11-15T08:17:30;10.13;;;6.80;;
39016;SDS011;24784;45.582;5.276;2022-11-15T08:20:06;10.35;;;7.30;;
39016;SDS011;24784;45.582;5.276;2022-11-15T08:22:49;15.05;;;8.85;;
39016;SDS011;24784;45.582;5.276;2022-11-15T08:25:33;11.10;;;8.35;;
39016;SDS011;24784;45.582;5.276;2022-11-15T08:31:23;10.60;;;6.90;;
39016;SDS011;24784;45.582;5.276;2022-11-15T08:36:30;13.95;;;7.45;;
39016;SDS011;24784;45.582;5.276;2022-11-15T08:39:22;16.77;;;7.20;;
39016;SDS011;24784;45.582;5.276;2022-11-15T08:41:55;11.98;;;8.27;;
39016;SDS011;24784;45.582;5.276;2022-11-15T08:44:33;8.15;;;6.65;;
39016;SDS011;24784;45.582;5.276;2022-11-15T08:49:48;8.85;;;6.40;;
39016;SDS011;24784;45.582;5.276;2022-11-15T08:52:22;10.45;;;6.75;;
39016;SDS011;24784;45.582;5.276;2022-11-15T08:54:53;9.87;;;6.67;;
39016;SDS011;24784;45.582;5.276;2022-11-15T08:57:29;9.05;;;6.47;;
39016;SDS011;24784;45.582;5.276;2022-11-15T09:00:35;10.52;;;6.35;;
39016;SDS011;24784;45.582;5.276;2022-11-15T09:03:07;9.10;;;6.85;;
39016;SDS011;24784;45.582;5.276;2022-11-15T09:05:43;16.83;;;7.13;;
39016;SDS011;24784;45.582;5.276;2022-11-15T09:08:21;13.68;;;6.50;;
39016;SDS011;24784;45.582;5.276;2022-11-15T09:11:15;8.73;;;6.32;;
39016;SDS011;24784;45.582;5.276;2022-11-15T09:14:05;11.52;;;7.25;;
39016;SDS011;24784;45.582;5.276;2022-11-15T09:16:36;10.88;;;6.75;;
39016;SDS011;24784;45.582;5.276;2022-11-15T09:19:02;9.63;;;6.65;;
39016;SDS011;24784;45.582;5.276;2022-11-15T09:21:51;11.27;;;6.63;;
39016;SDS011;24784;45.582;5.276;2022-11-15T09:24:22;11.82;;;6.85;;
39016;SDS011;24784;45.582;5.276;2022-11-15T09:26:58;12.48;;;6.93;;
39016;SDS011;24784;45.582;5.276;2022-11-15T09:29:39;10.32;;;6.22;;
39016;SDS011;24784;45.582;5.276;2022-11-15T09:32:12;9.90;;;6.75;;
39016;SDS011;24784;45.582;5.276;2022-11-15T09:34:53;11.18;;;7.50;;
39016;SDS011;24784;45.582;5.276;2022-11-15T09:37:33;12.43;;;6.90;;
39016;SDS011;24784;45.582;5.276;2022-11-15T10:03:11;11.98;;;6.80;;
39016;SDS011;24784;45.582;5.276;2022-11-15T10:09:13;7.78;;;5.65;;
39016;SDS011;24784;45.582;5.276;2022-11-15T10:12:05;10.13;;;6.15;;
39016;SDS011;24784;45.582;5.276;2022-11-15T10:28:23;8.27;;;5.35;;
39016;SDS011;24784;45.582;5.276;2022-11-15T10:37:22;11.15;;;5.20;;
39016;SDS011;24784;45.582;5.276;2022-11-15T10:40:22;8.48;;;5.07;;
39016;SDS011;24784;45.582;5.276;2022-11-15T11:58:24;23.83;;;6.18;;
39016;SDS011;24784;45.582;5.276;2022-11-15T12:06:55;8.57;;;4.53;;
39016;SDS011;24784;45.582;5.276;2022-11-15T12:16:02;8.77;;;4.20;;
39016;SDS011;24784;45.582;5.276;2022-11-15T12:24:19;9.07;;;4.30;;
39016;SDS011;24784;45.582;5.276;2022-11-15T12:45:48;5.03;;;3.60;;
39016;SDS011;24784;45.582;5.276;2022-11-15T12:51:09;5.03;;;3.88;;
39016;SDS011;24784;45.582;5.276;2022-11-15T12:53:38;5.45;;;3.75;;
39016;SDS011;24784;45.582;5.276;2022-11-15T12:58:56;8.93;;;4.03;;
39016;SDS011;24784;45.582;5.276;2022-11-15T13:04:25;5.10;;;3.65;;
39016;SDS011;24784;45.582;5.276;2022-11-15T13:07:04;8.13;;;3.55;;
39016;SDS011;24784;45.582;5.276;2022-11-15T13:12:08;6.57;;;3.70;;
39016;SDS011;24784;45.582;5.276;2022-11-15T13:14:49;9.95;;;4.25;;
39016;SDS011;24784;45.582;5.276;2022-11-15T13:17:30;5.47;;;3.53;;
39016;SDS011;24784;45.582;5.276;2022-11-15T13:20:45;5.65;;;3.67;;
39016;SDS011;24784;45.582;5.276;2022-11-15T13:29:53;8.07;;;4.13;;
39016;SDS011;24784;45.582;5.276;2022-11-15T13:46:23;10.35;;;4.28;;
39016;SDS011;24784;45.582;5.276;2022-11-15T13:51:56;7.28;;;3.13;;
39016;SDS011;24784;45.582;5.276;2022-11-15T14:00:31;4.70;;;3.10;;
39016;SDS011;24784;45.582;5.276;2022-11-15T14:03:13;5.80;;;3.45;;
39016;SDS011;24784;45.582;5.276;2022-11-15T14:11:57;8.50;;;3.85;;
39016;SDS011;24784;45.582;5.276;2022-11-15T14:14:54;7.15;;;3.92;;
39016;SDS011;24784;45.582;5.276;2022-11-15T14:26:35;8.40;;;4.07;;
39016;SDS011;24784;45.582;5.276;2022-11-15T14:31:49;10.07;;;4.22;;
39016;SDS011;24784;45.582;5.276;2022-11-15T14:34:44;5.93;;;4.03;;
39016;SDS011;24784;45.582;5.276;2022-11-15T14:47:45;11.30;;;4.18;;
39016;SDS011;24784;45.582;5.276;2022-11-15T14:50:15;4.22;;;3.30;;
39016;SDS011;24784;45.582;5.276;2022-11-15T14:52:48;5.95;;;4.10;;
39016;SDS011;24784;45.582;5.276;2022-11-15T14:55:26;6.07;;;3.83;;
39016;SDS011;24784;45.582;5.276;2022-11-15T14:57:59;8.45;;;4.35;;
39016;SDS011;24784;45.582;5.276;2022-11-15T15:03:13;9.57;;;4.63;;
39016;SDS011;24784;45.582;5.276;2022-11-15T15:05:45;7.88;;;4.47;;
39016;SDS011;24784;45.582;5.276;2022-11-15T15:08:15;15.80;;;4.82;;
39016;SDS011;24784;45.582;5.276;2022-11-15T15:10:46;11.57;;;4.68;;
39016;SDS011;24784;45.582;5.276;2022-11-15T15:13:33;10.73;;;4.47;;
39016;SDS011;24784;45.582;5.276;2022-11-15T15:16:34;7.78;;;4.97;;
39016;SDS011;24784;45.582;5.276;2022-11-15T15:19:22;6.55;;;4.72;;
39016;SDS011;24784;45.582;5.276;2022-11-15T15:24:46;11.40;;;5.03;;
39016;SDS011;24784;45.582;5.276;2022-11-15T15:27:14;10.05;;;5.63;;
39016;SDS011;24784;45.582;5.276;2022-11-15T15:29:42;16.17;;;5.47;;
39016;SDS011;24784;45.582;5.276;2022-11-15T15:32:10;9.32;;;5.30;;
39016;SDS011;24784;45.582;5.276;2022-11-15T15:34:47;8.32;;;5.30;;
39016;SDS011;24784;45.582;5.276;2022-11-15T15:37:28;10.00;;;5.65;;
39016;SDS011;24784;45.582;5.276;2022-11-15T15:48:42;9.55;;;5.45;;
39016;SDS011;24784;45.582;5.276;2022-11-15T15:54:17;10.80;;;6.05;;
39016;SDS011;24784;45.582;5.276;2022-11-15T15:57:07;9.75;;;5.78;;
39016;SDS011;24784;45.582;5.276;2022-11-15T16:00:01;9.85;;;5.20;;
39016;SDS011;24784;45.582;5.276;2022-11-15T16:10:35;9.88;;;6.35;;
39016;SDS011;24784;45.582;5.276;2022-11-15T16:13:30;18.63;;;9.65;;
39016;SDS011;24784;45.582;5.276;2022-11-15T16:18:51;31.33;;;15.38;;
39016;SDS011;24784;45.582;5.276;2022-11-15T16:24:02;14.55;;;8.52;;
39016;SDS011;24784;45.582;5.276;2022-11-15T16:26:54;19.17;;;9.75;;
39016;SDS011;24784;45.582;5.276;2022-11-15T16:30:04;14.23;;;8.32;;
39016;SDS011;24784;45.582;5.276;2022-11-15T16:32:48;11.48;;;7.72;;
39016;SDS011;24784;45.582;5.276;2022-11-15T16:35:38;8.35;;;6.45;;
39016;SDS011;24784;45.582;5.276;2022-11-15T16:38:18;7.88;;;5.90;;
39016;SDS011;24784;45.582;5.276;2022-11-15T16:41:03;12.55;;;7.15;;
39016;SDS011;24784;45.582;5.276;2022-11-15T16:49:34;17.23;;;8.18;;
39016;SDS011;24784;45.582;5.276;2022-11-15T16:57:42;14.05;;;8.55;;
39016;SDS011;24784;45.582;5.276;2022-11-15T17:00:31;18.65;;;8.38;;
39016;SDS011;24784;45.582;5.276;2022-11-15T17:05:36;14.88;;;8.60;;
39016;SDS011;24784;45.582;5.276;2022-11-15T17:08:15;10.35;;;7.57;;
39016;SDS011;24784;45.582;5.276;2022-11-15T17:21:52;12.02;;;6.47;;
39016;SDS011;24784;45.582;5.276;2022-11-15T17:32:40;12.80;;;7.18;;
39016;SDS011;24784;45.582;5.276;2022-11-15T17:35:59;14.77;;;7.28;;
39016;SDS011;24784;45.582;5.276;2022-11-15T17:38:26;8.80;;;7.25;;
39016;SDS011;24784;45.582;5.276;2022-11-15T17:41:08;13.70;;;8.38;;
39016;SDS011;24784;45.582;5.276;2022-11-15T17:43:37;15.32;;;10.50;;
39016;SDS011;24784;45.582;5.276;2022-11-15T17:46:04;15.60;;;9.48;;
39016;SDS011;24784;45.582;5.276;2022-11-15T17:48:31;17.27;;;8.25;;
39016;SDS011;24784;45.582;5.276;2022-11-15T17:50:58;15.35;;;8.25;;
39016;SDS011;24784;45.582;5.276;2022-11-15T17:53:26;20.50;;;13.02;;
39016;SDS011;24784;45.582;5.276;2022-11-15T17:55:56;29.92;;;16.33;;
39016;SDS011;24784;45.582;5.276;2022-11-15T17:58:41;32.28;;;17.48;;
39016;SDS011;24784;45.582;5.276;2022-11-15T18:04:24;37.67;;;22.55;;
39016;SDS011;24784;45.582;5.276;2022-11-15T18:07:08;46.25;;;27.13;;
39016;SDS011;24784;45.582;5.276;2022-11-15T18:09:54;49.33;;;30.38;;
39016;SDS011;24784;45.582;5.276;2022-11-15T18:16:04;33.25;;;23.67;;
39016;SDS011;24784;45.582;5.276;2022-11-15T18:24:58;46.45;;;25.58;;
39016;SDS011;24784;45.582;5.276;2022-11-15T18:30:21;32.22;;;19.65;;
39016;SDS011;24784;45.582;5.276;2022-11-15T18:33:21;28.52;;;18.65;;
39016;SDS011;24784;45.582;5.276;2022-11-15T18:42:09;15.77;;;7.53;;
39016;SDS011;24784;45.582;5.276;2022-11-15T18:45:06;22.35;;;11.05;;
39016;SDS011;24784;45.582;5.276;2022-11-15T19:38:16;17.00;;;9.38;;
39016;SDS011;24784;45.582;5.276;2022-11-15T19:43:46;17.05;;;12.15;;
39016;SDS011;24784;45.582;5.276;2022-11-15T19:46:22;15.10;;;9.18;;
39016;SDS011;24784;45.582;5.276;2022-11-15T19:48:57;19.25;;;9.30;;
39016;SDS011;24784;45.582;5.276;2022-11-15T19:54:01;35.10;;;22.70;;
39016;SDS011;24784;45.582;5.276;2022-11-15T19:56:36;15.60;;;8.80;;
39016;SDS011;24784;45.582;5.276;2022-11-15T20:07:32;11.80;;;7.80;;
39016;SDS011;24784;45.582;5.276;2022-11-15T20:10:03;16.38;;;8.50;;
39016;SDS011;24784;45.582;5.276;2022-11-15T20:15:52;21.23;;;8.00;;
39016;SDS011;24784;45.582;5.276;2022-11-15T20:21:28;19.48;;;9.32;;
39016;SDS011;24784;45.582;5.276;2022-11-15T20:26:47;18.05;;;8.20;;
